createdAt,value
2018-06-29T00:00:34.279Z,100171.00
2018-06-29T00:03:10.311Z,100164.00
2018-06-29T00:05:47.837Z,100168.00
2018-06-29T00:08:25.132Z,100169.00
2018-06-29T00:11:01.800Z,100173.00
2018-06-29T00:13:38.475Z,100167.00
2018-06-29T00:16:14.844Z,100166.00
2018-06-29T00:18:51.545Z,100163.00
2018-06-29T00:21:29.702Z,100167.00
2018-06-29T00:24:07.591Z,100167.00
2018-06-29T00:26:44.295Z,100159.00
2018-06-29T00:29:20.697Z,100158.00
2018-06-29T00:31:58.726Z,100152.00
2018-06-29T00:34:35.535Z,100150.00
2018-06-29T00:37:12.789Z,100148.00
2018-06-29T00:39:48.845Z,100155.00
2018-06-29T00:42:26.824Z,100161.00
2018-06-29T00:45:04.787Z,100158.00
2018-06-29T00:47:40.702Z,100160.00
2018-06-29T00:50:16.976Z,100160.00
2018-06-29T00:52:53.922Z,100161.00
2018-06-29T00:55:31.174Z,100162.00
2018-06-29T00:58:07.361Z,100157.00
2018-06-29T01:00:44.652Z,100159.00
2018-06-29T01:03:23.163Z,100155.00
2018-06-29T01:05:59.813Z,100154.00
2018-06-29T01:08:37.159Z,100152.00
2018-06-29T01:11:14.579Z,100157.00
2018-06-29T01:13:51.783Z,100156.00
2018-06-29T01:16:28.550Z,100158.00
2018-06-29T01:19:05.054Z,100166.00
2018-06-29T01:21:40.870Z,100159.00
2018-06-29T01:24:17.473Z,100157.00
2018-06-29T01:26:55.728Z,100149.00
2018-06-29T01:29:31.908Z,100144.00
2018-06-29T01:32:08.410Z,100145.00
2018-06-29T01:34:45.519Z,100150.00
2018-06-29T01:37:22.947Z,100150.00
2018-06-29T01:40:00.795Z,100145.00
2018-06-29T01:42:38.840Z,100146.00
2018-06-29T01:45:15.188Z,100146.00
2018-06-29T01:47:51.490Z,100146.00
2018-06-29T01:50:27.353Z,100142.00
2018-06-29T01:53:03.841Z,100143.00
2018-06-29T01:55:41.233Z,100138.00
2018-06-29T01:58:18.769Z,100136.00
2018-06-29T02:00:55.739Z,100138.00
2018-06-29T02:03:33.542Z,100140.00
2018-06-29T02:06:11.359Z,100139.00
2018-06-29T02:08:48.204Z,100136.00
2018-06-29T02:11:24.809Z,100125.00
2018-06-29T02:14:02.287Z,100123.00
2018-06-29T02:16:41.873Z,100122.00
2018-06-29T02:19:18.427Z,100122.00
2018-06-29T02:21:56.187Z,100119.00
2018-06-29T02:24:32.774Z,100127.00
2018-06-29T02:27:09.493Z,100124.00
2018-06-29T02:29:46.426Z,100118.00
2018-06-29T02:32:24.892Z,100119.00
2018-06-29T02:35:02.015Z,100124.00
2018-06-29T02:37:38.454Z,100128.00
2018-06-29T02:40:15.730Z,100127.00
2018-06-29T02:42:52.554Z,100125.00
2018-06-29T02:45:28.905Z,100120.00
2018-06-29T02:48:04.934Z,100119.00
2018-06-29T02:50:42.357Z,100115.00
2018-06-29T02:53:17.897Z,100110.00
2018-06-29T02:55:54.489Z,100107.00
2018-06-29T02:58:31.815Z,100109.00
2018-06-29T03:01:09.070Z,100114.00
2018-06-29T03:03:45.485Z,100121.00
2018-06-29T03:06:23.217Z,100119.00
2018-06-29T03:09:00.046Z,100121.00
2018-06-29T03:11:38.172Z,100123.00
2018-06-29T03:14:15.614Z,100127.00
2018-06-29T03:16:52.235Z,100139.00
2018-06-29T03:19:29.528Z,100143.00
2018-06-29T03:22:06.204Z,100145.00
2018-06-29T03:24:42.026Z,100145.00
2018-06-29T03:27:19.954Z,100139.00
2018-06-29T03:29:56.690Z,100141.00
2018-06-29T03:32:32.852Z,100137.00
2018-06-29T03:35:09.595Z,100137.00
2018-06-29T03:37:47.056Z,100134.00
2018-06-29T03:40:23.358Z,100131.00
2018-06-29T03:42:59.561Z,100135.00
2018-06-29T03:45:36.156Z,100131.00
2018-06-29T03:48:13.655Z,100132.00
2018-06-29T03:50:49.646Z,100131.00
2018-06-29T03:53:27.459Z,100129.00
2018-06-29T03:56:06.382Z,100126.00
2018-06-29T03:58:43.565Z,100130.00
2018-06-29T04:01:20.298Z,100130.00
2018-06-29T04:03:58.062Z,100136.00
2018-06-29T04:06:34.253Z,100127.00
2018-06-29T04:09:12.423Z,100125.00
2018-06-29T04:11:49.997Z,100133.00
2018-06-29T04:14:25.529Z,100125.00
2018-06-29T04:17:02.007Z,100124.00
2018-06-29T04:19:43.555Z,100120.00
2018-06-29T04:22:20.778Z,100127.00
2018-06-29T04:25:01.752Z,100125.00
2018-06-29T04:27:39.413Z,100127.00
2018-06-29T04:30:17.738Z,100122.00
2018-06-29T04:32:53.996Z,100117.00
2018-06-29T04:35:31.256Z,100123.00
2018-06-29T04:38:08.526Z,100127.00
2018-06-29T04:40:44.887Z,100125.00
2018-06-29T04:43:22.507Z,100121.00
2018-06-29T04:45:59.827Z,100111.00
2018-06-29T04:48:36.876Z,100116.00
2018-06-29T04:51:13.357Z,100115.00
2018-06-29T04:53:49.943Z,100115.00
2018-06-29T04:56:27.445Z,100118.00
2018-06-29T04:59:03.989Z,100118.00
2018-06-29T05:01:42.129Z,100118.00
2018-06-29T05:04:19.907Z,100122.00
2018-06-29T05:06:55.946Z,100124.00
2018-06-29T05:09:33.479Z,100132.00
2018-06-29T05:12:11.058Z,100133.00
2018-06-29T05:14:48.900Z,100138.00
2018-06-29T05:17:26.563Z,100141.00
2018-06-29T05:20:03.100Z,100132.00
2018-06-29T05:22:40.034Z,100134.00
2018-06-29T05:25:17.848Z,100135.00
2018-06-29T05:27:55.785Z,100137.00
2018-06-29T05:30:33.300Z,100143.00
2018-06-29T05:33:10.669Z,100141.00
2018-06-29T05:35:48.944Z,100139.00
2018-06-29T05:38:25.718Z,100145.00
2018-06-29T05:41:02.184Z,100143.00
2018-06-29T05:43:39.990Z,100145.00
2018-06-29T05:46:18.051Z,100151.00
2018-06-29T05:48:55.170Z,100149.00
2018-06-29T05:51:33.118Z,100145.00
2018-06-29T05:54:11.459Z,100154.00
2018-06-29T05:56:49.573Z,100148.00
2018-06-29T05:59:25.877Z,100151.00
2018-06-29T06:02:03.787Z,100153.00
2018-06-29T06:04:41.797Z,100158.00
2018-06-29T06:07:19.433Z,100160.00
2018-06-29T06:09:56.868Z,100160.00
2018-06-29T06:12:34.405Z,100166.00
2018-06-29T06:15:12.369Z,100169.00
2018-06-29T06:17:48.767Z,100165.00
2018-06-29T06:20:28.687Z,100167.00
2018-06-29T06:23:20.033Z,100169.00
2018-06-29T06:25:58.097Z,100167.00
2018-06-29T06:28:34.803Z,100163.00
2018-06-29T06:31:11.145Z,100164.00
2018-06-29T06:33:51.246Z,100171.00
2018-06-29T06:36:29.857Z,100167.00
2018-06-29T06:39:11.744Z,100163.00
2018-06-29T06:41:47.843Z,100163.00
2018-06-29T06:44:24.403Z,100162.00
2018-06-29T06:47:01.122Z,100166.00
2018-06-29T06:49:37.266Z,100169.00
2018-06-29T06:52:14.788Z,100168.00
2018-06-29T06:54:52.277Z,100165.00
2018-06-29T06:57:28.349Z,100173.00
2018-06-29T07:00:06.245Z,100172.00
2018-06-29T07:02:43.291Z,100168.00
2018-06-29T07:05:21.037Z,100159.00
2018-06-29T07:07:58.028Z,100159.00
2018-06-29T07:10:34.410Z,100162.00
2018-06-29T07:13:11.712Z,100173.00
2018-06-29T07:15:47.761Z,100171.00
2018-06-29T07:18:23.964Z,100169.00
2018-06-29T07:21:02.558Z,100168.00
2018-06-29T07:23:39.425Z,100167.00
2018-06-29T07:26:16.267Z,100170.00
2018-06-29T07:28:53.272Z,100171.00
2018-06-29T07:31:30.364Z,100173.00
2018-06-29T07:34:06.673Z,100166.00
2018-06-29T07:36:43.951Z,100170.00
2018-06-29T07:39:22.134Z,100166.00
2018-06-29T07:41:59.393Z,100159.00
2018-06-29T07:44:36.444Z,100146.00
2018-06-29T07:47:14.632Z,100152.00
2018-06-29T07:49:51.588Z,100144.00
2018-06-29T07:52:28.885Z,100148.00
2018-06-29T07:55:05.286Z,100150.00
2018-06-29T07:57:41.643Z,100141.00
2018-06-29T08:00:18.756Z,100133.00
2018-06-29T08:02:56.307Z,100129.00
2018-06-29T08:05:33.246Z,100131.00
2018-06-29T08:08:10.854Z,100128.00
2018-06-29T08:10:49.853Z,100120.00
2018-06-29T08:13:27.554Z,100118.00
2018-06-29T08:16:05.237Z,100116.00
2018-06-29T08:18:42.758Z,100122.00
2018-06-29T08:21:20.030Z,100115.00
2018-06-29T08:23:57.784Z,100113.00
2018-06-29T08:26:35.426Z,100118.00
2018-06-29T08:29:12.491Z,100118.00
2018-06-29T08:31:50.433Z,100115.00
2018-06-29T08:34:27.614Z,100110.00
2018-06-29T08:37:04.316Z,100114.00
2018-06-29T08:39:41.417Z,100111.00
2018-06-29T08:42:19.526Z,100107.00
2018-06-29T08:44:57.197Z,100099.00
2018-06-29T08:47:32.969Z,100093.00
2018-06-29T08:50:10.582Z,100096.00
2018-06-29T08:52:48.674Z,100088.00
2018-06-29T08:55:27.129Z,100086.00
2018-06-29T08:58:06.237Z,100086.00
2018-06-29T09:00:44.629Z,100081.00
2018-06-29T09:03:22.343Z,100089.00
2018-06-29T09:05:59.410Z,100091.00
2018-06-29T09:08:35.845Z,100087.00
2018-06-29T09:11:13.434Z,100088.00
2018-06-29T09:13:50.514Z,100089.00
2018-06-29T09:16:26.471Z,100076.00
2018-06-29T09:19:04.071Z,100077.00
2018-06-29T09:21:41.354Z,100078.00
2018-06-29T09:24:18.152Z,100081.00
2018-06-29T09:26:55.236Z,100077.00
2018-06-29T09:29:32.791Z,100077.00
2018-06-29T09:32:10.050Z,100070.00
2018-06-29T09:34:47.706Z,100070.00
2018-06-29T09:37:25.925Z,100060.00
2018-06-29T09:40:03.875Z,100064.00
2018-06-29T09:42:42.432Z,100058.00
2018-06-29T09:45:20.043Z,100065.00
2018-06-29T09:47:56.318Z,100059.00
2018-06-29T09:50:33.205Z,100053.00
2018-06-29T09:53:10.285Z,100060.00
2018-06-29T09:55:48.816Z,100056.00
2018-06-29T09:58:26.011Z,100053.00
2018-06-29T10:01:04.239Z,100049.00
2018-06-29T10:03:40.975Z,100045.00
2018-06-29T10:06:17.709Z,100040.00
2018-06-29T10:08:56.069Z,100045.00
2018-06-29T10:11:34.293Z,100036.00
2018-06-29T10:14:13.338Z,100031.00
2018-06-29T10:16:51.341Z,100032.00
2018-06-29T10:19:28.502Z,100022.00
2018-06-29T10:22:06.485Z,100029.00
2018-06-29T10:24:42.986Z,100020.00
2018-06-29T10:27:20.481Z,100019.00
2018-06-29T10:29:57.378Z,100016.00
2018-06-29T10:32:33.965Z,100026.00
2018-06-29T10:35:11.557Z,100025.00
2018-06-29T10:37:49.018Z,100022.00
2018-06-29T10:40:25.289Z,100026.00
2018-06-29T10:43:01.101Z,100024.00
2018-06-29T10:45:38.469Z,100018.00
2018-06-29T10:48:14.216Z,100012.00
2018-06-29T10:50:51.546Z,100015.00
2018-06-29T10:53:28.949Z,100006.00
2018-06-29T10:56:06.710Z,100009.00
2018-06-29T10:58:44.349Z,100006.00
2018-06-29T11:01:20.955Z,100000.00
2018-06-29T11:03:58.209Z,99997.00
2018-06-29T11:06:36.430Z,99999.00
2018-06-29T11:09:13.861Z,100000.00
2018-06-29T11:11:51.380Z,99997.00
2018-06-29T11:14:27.964Z,99996.00
2018-06-29T11:17:05.129Z,100002.00
2018-06-29T11:19:43.880Z,99997.00
2018-06-29T11:22:21.168Z,99999.00
2018-06-29T11:24:57.859Z,99989.00
2018-06-29T11:27:36.101Z,99975.00
2018-06-29T11:30:12.880Z,99978.00
2018-06-29T11:32:50.482Z,99979.00
2018-06-29T11:35:33.722Z,99969.00
2018-06-29T11:38:12.573Z,99982.00
2018-06-29T11:40:49.930Z,99976.00
2018-06-29T11:43:27.337Z,99974.00
2018-06-29T11:46:04.935Z,99967.00
2018-06-29T11:48:42.765Z,99966.00
2018-06-29T11:51:20.119Z,99972.00
2018-06-29T11:53:58.061Z,99961.00
2018-06-29T11:56:34.678Z,99959.00
2018-06-29T11:59:11.108Z,99961.00
2018-06-29T12:01:47.544Z,99956.00
2018-06-29T12:04:23.866Z,99944.00
2018-06-29T12:07:00.438Z,99939.00
2018-06-29T12:09:37.097Z,99939.00
2018-06-29T12:12:14.936Z,99932.00
2018-06-29T12:14:53.120Z,99929.00
2018-06-29T12:17:30.253Z,99929.00
2018-06-29T12:20:06.591Z,99924.00
2018-06-29T12:22:44.590Z,99920.00
2018-06-29T12:25:22.111Z,99915.00
2018-06-29T12:27:59.928Z,99909.00
2018-06-29T12:30:37.068Z,99912.00
2018-06-29T12:33:13.369Z,99916.00
2018-06-29T12:35:50.740Z,99911.00
2018-06-29T12:38:28.273Z,99902.00
2018-06-29T12:41:05.917Z,99900.00
2018-06-29T12:43:42.477Z,99901.00
2018-06-29T12:46:20.934Z,99904.00
2018-06-29T12:48:57.652Z,99892.00
2018-06-29T12:51:35.624Z,99884.00
2018-06-29T12:54:13.531Z,99886.00
2018-06-29T12:56:51.745Z,99892.00
2018-06-29T12:59:29.505Z,99885.00
2018-06-29T13:02:06.024Z,99885.00
2018-06-29T13:04:44.079Z,99870.00
2018-06-29T13:07:22.033Z,99872.00
2018-06-29T13:09:58.400Z,99863.00
2018-06-29T13:12:35.486Z,99869.00
2018-06-29T13:15:14.080Z,99859.00
2018-06-29T13:17:52.347Z,99852.00
2018-06-29T13:20:29.430Z,99850.00
2018-06-29T13:23:07.279Z,99845.00
2018-06-29T13:25:45.530Z,99840.00
2018-06-29T13:28:24.095Z,99840.00
2018-06-29T13:31:02.129Z,99838.00
2018-06-29T13:33:38.615Z,99833.00
2018-06-29T13:36:16.581Z,99832.00
2018-06-29T13:38:53.403Z,99826.00
2018-06-29T13:41:31.056Z,99814.00
2018-06-29T13:44:08.539Z,99823.00
2018-06-29T13:46:45.035Z,99818.00
2018-06-29T13:49:22.758Z,99806.00
2018-06-29T13:52:00.032Z,99803.00
2018-06-29T13:54:37.773Z,99800.00
2018-06-29T13:57:15.694Z,99800.00
2018-06-29T13:59:52.266Z,99793.00
2018-06-29T14:02:29.612Z,99792.00
2018-06-29T14:05:08.069Z,99793.00
2018-06-29T14:07:46.498Z,99789.00
2018-06-29T14:10:24.737Z,99789.00
2018-06-29T14:13:02.464Z,99787.00
2018-06-29T14:15:39.625Z,99788.00
2018-06-29T14:18:15.569Z,99787.00
2018-06-29T14:20:53.233Z,99778.00
2018-06-29T14:23:31.475Z,99778.00
2018-06-29T14:26:09.278Z,99776.00
2018-06-29T14:28:45.985Z,99772.00
2018-06-29T14:31:26.858Z,99775.00
2018-06-29T14:34:08.069Z,99763.00
2018-06-29T14:36:46.410Z,99759.00
2018-06-29T14:39:25.004Z,99759.00
2018-06-29T14:42:02.804Z,99749.00
2018-06-29T14:44:40.467Z,99752.00
2018-06-29T14:47:18.237Z,99755.00
2018-06-29T14:49:55.196Z,99756.00
2018-06-29T14:52:31.676Z,99751.00
2018-06-29T14:55:09.127Z,99746.00
2018-06-29T14:57:45.597Z,99739.00
2018-06-29T15:00:22.529Z,99740.00
2018-06-29T15:02:59.685Z,99736.00
2018-06-29T15:05:38.109Z,99743.00
2018-06-29T15:08:15.209Z,99740.00
2018-06-29T15:10:52.667Z,99745.00
2018-06-29T15:13:30.308Z,99731.00
2018-06-29T15:16:08.694Z,99730.00
2018-06-29T15:18:45.537Z,99733.00
2018-06-29T15:21:22.978Z,99736.00
2018-06-29T15:24:02.078Z,99728.00
2018-06-29T15:26:38.709Z,99725.00
2018-06-29T15:29:15.115Z,99727.00
2018-06-29T15:31:51.829Z,99720.00
2018-06-29T15:34:28.577Z,99724.00
2018-06-29T15:37:05.886Z,99724.00
2018-06-29T15:39:44.383Z,99723.00
2018-06-29T15:42:22.695Z,99725.00
2018-06-29T15:45:00.544Z,99720.00
2018-06-29T15:47:38.055Z,99719.00
2018-06-29T15:50:15.489Z,99718.00
2018-06-29T15:52:54.434Z,99717.00
2018-06-29T15:55:32.389Z,99716.00
2018-06-29T15:58:09.717Z,99718.00
2018-06-29T16:00:46.494Z,99711.00
2018-06-29T16:03:24.658Z,99713.00
2018-06-29T16:06:01.945Z,99711.00
2018-06-29T16:08:38.914Z,99704.00
2018-06-29T16:11:15.610Z,99716.00
2018-06-29T16:13:52.043Z,99716.00
2018-06-29T16:16:29.031Z,99717.00
2018-06-29T16:19:06.005Z,99713.00
2018-06-29T16:21:43.014Z,99717.00
2018-06-29T16:24:20.353Z,99706.00
2018-06-29T16:26:58.289Z,99711.00
2018-06-29T16:29:37.210Z,99709.00
2018-06-29T16:32:16.052Z,99718.00
2018-06-29T16:34:53.644Z,99708.00
2018-06-29T16:37:29.606Z,99711.00
2018-06-29T16:40:07.261Z,99708.00
2018-06-29T16:42:44.968Z,99704.00
2018-06-29T16:45:22.190Z,99705.00
2018-06-29T16:48:00.257Z,99712.00
2018-06-29T16:50:37.419Z,99711.00
2018-06-29T16:53:14.863Z,99708.00
2018-06-29T16:55:53.180Z,99706.00
2018-06-29T16:58:29.266Z,99709.00
2018-06-29T17:01:05.914Z,99709.00
2018-06-29T17:03:42.670Z,99706.00
2018-06-29T17:06:18.445Z,99716.00
2018-06-29T17:08:55.441Z,99712.00
2018-06-29T17:11:31.545Z,99707.00
2018-06-29T17:14:08.136Z,99708.00
2018-06-29T17:16:44.064Z,99708.00
2018-06-29T17:19:22.275Z,99713.00
2018-06-29T17:21:59.524Z,99708.00
2018-06-29T17:24:35.858Z,99708.00
2018-06-29T17:27:13.255Z,99708.00
2018-06-29T17:29:49.421Z,99704.00
2018-06-29T17:32:25.566Z,99706.00
2018-06-29T17:35:01.953Z,99701.00
2018-06-29T17:37:40.117Z,99705.00
2018-06-29T17:40:17.628Z,99709.00
2018-06-29T17:42:55.242Z,99705.00
2018-06-29T17:45:32.825Z,99702.00
2018-06-29T17:48:09.480Z,99707.00
2018-06-29T17:50:45.188Z,99702.00
2018-06-29T17:53:20.998Z,99707.00
2018-06-29T17:55:58.650Z,99704.00
2018-06-29T17:58:35.322Z,99705.00
2018-06-29T18:01:12.355Z,99709.00
2018-06-29T18:03:50.233Z,99710.00
2018-06-29T18:06:27.598Z,99711.00
2018-06-29T18:09:05.249Z,99711.00
2018-06-29T18:11:42.281Z,99711.00
2018-06-29T18:14:19.713Z,99707.00
2018-06-29T18:16:56.450Z,99710.00
2018-06-29T18:19:32.376Z,99709.00
2018-06-29T18:22:09.012Z,99710.00
2018-06-29T18:24:44.985Z,99712.00
2018-06-29T18:27:21.941Z,99711.00
2018-06-29T18:29:58.408Z,99711.00
2018-06-29T18:32:37.772Z,99709.00
2018-06-29T18:35:16.038Z,99709.00
2018-06-29T18:37:53.343Z,99709.00
2018-06-29T18:40:30.039Z,99704.00
2018-06-29T18:43:08.250Z,99707.00
2018-06-29T18:45:46.200Z,99705.00
2018-06-29T18:48:24.185Z,99707.00
2018-06-29T18:51:02.204Z,99714.00
2018-06-29T18:53:38.606Z,99712.00
2018-06-29T18:56:17.152Z,99718.00
2018-06-29T18:58:54.520Z,99716.00
2018-06-29T19:01:30.752Z,99715.00
2018-06-29T19:04:09.923Z,99725.00
2018-06-29T19:06:46.802Z,99722.00
2018-06-29T19:09:24.215Z,99725.00
2018-06-29T19:12:02.187Z,99730.00
2018-06-29T19:14:39.553Z,99726.00
2018-06-29T19:17:18.598Z,99733.00
2018-06-29T19:19:56.529Z,99728.00
2018-06-29T19:22:36.248Z,99731.00
2018-06-29T19:25:13.535Z,99737.00
2018-06-29T19:27:50.872Z,99741.00
2018-06-29T19:30:28.267Z,99743.00
2018-06-29T19:33:06.367Z,99756.00
2018-06-29T19:35:43.704Z,99761.00
2018-06-29T19:38:22.349Z,99767.00
2018-06-29T19:40:58.635Z,99773.00
2018-06-29T19:43:36.537Z,99775.00
2018-06-29T19:46:14.482Z,99775.00
2018-06-29T19:48:52.009Z,99782.00
2018-06-29T19:51:30.070Z,99789.00
2018-06-29T19:54:06.954Z,99794.00
2018-06-29T19:56:44.649Z,99801.00
2018-06-29T19:59:24.127Z,99815.00
2018-06-29T20:02:01.663Z,99822.00
2018-06-29T20:04:39.072Z,99820.00
2018-06-29T20:07:16.846Z,99823.00
2018-06-29T20:09:55.591Z,99838.00
2018-06-29T20:12:32.571Z,99849.00
2018-06-29T20:15:10.260Z,99850.00
2018-06-29T20:17:47.882Z,99865.00
2018-06-29T20:20:25.163Z,99866.00
2018-06-29T20:23:02.904Z,99870.00
2018-06-29T20:25:40.885Z,99874.00
2018-06-29T20:28:17.653Z,99878.00
2018-06-29T20:30:57.049Z,99886.00
2018-06-29T20:33:34.150Z,99885.00
2018-06-29T20:36:11.710Z,99889.00
2018-06-29T20:38:47.552Z,99895.00
2018-06-29T20:41:25.071Z,99896.00
2018-06-29T20:44:01.380Z,99902.00
2018-06-29T20:46:38.424Z,99915.00
2018-06-29T20:49:16.770Z,99916.00
2018-06-29T20:51:53.285Z,99915.00
2018-06-29T20:54:29.301Z,99916.00
2018-06-29T20:57:07.201Z,99918.00
2018-06-29T20:59:43.500Z,99925.00
2018-06-29T21:02:20.693Z,99920.00
2018-06-29T21:04:58.258Z,99927.00
2018-06-29T21:07:35.361Z,99926.00
2018-06-29T21:10:13.383Z,99927.00
2018-06-29T21:12:51.110Z,99931.00
2018-06-29T21:15:27.538Z,99935.00
2018-06-29T21:18:05.761Z,99938.00
2018-06-29T21:20:42.267Z,99943.00
2018-06-29T21:23:19.178Z,99948.00
2018-06-29T21:25:55.389Z,99954.00
2018-06-29T21:28:32.721Z,99953.00
2018-06-29T21:31:08.911Z,99965.00
2018-06-29T21:33:46.400Z,99968.00
2018-06-29T21:36:23.816Z,99973.00
2018-06-29T21:39:00.945Z,99978.00
2018-06-29T21:41:37.690Z,99984.00
2018-06-29T21:44:14.256Z,99988.00
2018-06-29T21:46:52.143Z,99993.00
2018-06-29T21:49:29.179Z,99998.00
2018-06-29T21:52:07.156Z,99999.00
2018-06-29T21:54:44.845Z,100004.00
2018-06-29T21:57:22.690Z,100000.00
2018-06-29T21:59:59.836Z,100004.00
2018-06-29T22:02:36.473Z,100008.00
2018-06-29T22:05:12.468Z,100005.00
2018-06-29T22:07:48.484Z,100004.00
2018-06-29T22:10:25.526Z,100014.00
2018-06-29T22:13:02.728Z,100021.00
2018-06-29T22:15:40.029Z,100023.00
2018-06-29T22:18:16.477Z,100028.00
2018-06-29T22:20:53.677Z,100031.00
2018-06-29T22:23:30.935Z,100032.00
2018-06-29T22:26:08.598Z,100032.00
2018-06-29T22:28:45.037Z,100035.00
2018-06-29T22:31:22.100Z,100038.00
2018-06-29T22:33:59.265Z,100041.00
2018-06-29T22:36:36.611Z,100040.00
2018-06-29T22:39:14.858Z,100038.00
2018-06-29T22:41:51.923Z,100040.00
2018-06-29T22:44:30.114Z,100040.00
2018-06-29T22:47:07.318Z,100041.00
2018-06-29T22:49:43.291Z,100048.00
2018-06-29T22:52:21.621Z,100052.00
2018-06-29T22:54:58.519Z,100045.00
2018-06-29T22:57:35.281Z,100050.00
2018-06-29T23:00:12.979Z,100053.00
2018-06-29T23:02:51.313Z,100049.00
2018-06-29T23:05:29.707Z,100057.00
2018-06-29T23:08:08.605Z,100055.00
2018-06-29T23:10:45.925Z,100056.00
2018-06-29T23:13:23.365Z,100053.00
2018-06-29T23:16:01.228Z,100058.00
2018-06-29T23:18:38.230Z,100060.00
2018-06-29T23:21:14.654Z,100059.00
2018-06-29T23:23:50.862Z,100064.00
2018-06-29T23:26:27.482Z,100066.00
2018-06-29T23:29:03.236Z,100071.00
2018-06-29T23:31:39.872Z,100069.00
2018-06-29T23:34:16.521Z,100069.00
2018-06-29T23:36:54.707Z,100068.00
2018-06-29T23:39:31.171Z,100079.00
2018-06-29T23:42:07.235Z,100082.00
2018-06-29T23:44:43.964Z,100080.00
2018-06-29T23:47:20.969Z,100077.00
2018-06-29T23:49:58.321Z,100074.00
2018-06-29T23:52:34.803Z,100078.00
2018-06-29T23:55:11.545Z,100079.00
2018-06-29T23:57:48.279Z,100074.00
